createdAt,value
2022-11-16T00:02:22.783Z,75.47
2022-11-16T00:04:52.107Z,126.20
2022-11-16T00:07:21.561Z,100.30
2022-11-16T00:09:52.473Z,38.30
2022-11-16T00:12:21.764Z,49.80
2022-11-16T00:14:51.092Z,56.13
2022-11-16T00:17:20.416Z,25.50
2022-11-16T00:19:50.242Z,38.20
2022-11-16T00:22:19.635Z,41.65
2022-11-16T00:24:50.732Z,39.55
2022-11-16T00:27:20.196Z,48.25
2022-11-16T00:29:49.665Z,35.08
2022-11-16T00:32:19.007Z,34.55
2022-11-16T00:34:48.289Z,50.58
2022-11-16T00:37:17.690Z,39.30
2022-11-16T00:39:47.051Z,38.08
2022-11-16T00:42:17.910Z,44.42
2022-11-16T00:44:47.213Z,43.38
2022-11-16T00:47:16.674Z,39.33
2022-11-16T00:51:10.295Z,46.97
2022-11-16T00:53:39.986Z,44.22
2022-11-16T00:56:10.188Z,30.58
2022-11-16T00:58:39.571Z,41.60
2022-11-16T01:01:10.775Z,37.83
2022-11-16T01:03:40.866Z,33.35
2022-11-16T01:06:15.246Z,32.30
2022-11-16T01:08:46.163Z,26.88
2022-11-16T01:11:35.599Z,30.17
2022-11-16T01:14:07.853Z,29.60
2022-11-16T01:16:37.831Z,29.83
2022-11-16T01:19:09.017Z,31.73
2022-11-16T01:21:39.885Z,31.05
2022-11-16T01:24:09.589Z,26.25
2022-11-16T01:26:38.984Z,35.42
2022-11-16T01:29:08.313Z,34.40
2022-11-16T01:31:37.661Z,34.63
2022-11-16T01:34:07.030Z,27.80
2022-11-16T01:36:36.985Z,30.70
2022-11-16T01:39:08.911Z,27.98
2022-11-16T01:41:38.267Z,27.67
2022-11-16T01:44:46.710Z,34.58
2022-11-16T01:47:18.672Z,35.53
2022-11-16T01:49:53.618Z,37.67
2022-11-16T01:52:27.565Z,28.77
2022-11-16T01:54:58.553Z,37.60
2022-11-16T01:57:34.419Z,35.03
2022-11-16T02:00:08.482Z,35.20
2022-11-16T02:02:37.862Z,31.35
2022-11-16T02:05:09.272Z,31.42
2022-11-16T02:08:35.017Z,32.42
2022-11-16T02:11:41.427Z,30.42
2022-11-16T02:14:25.645Z,25.48
2022-11-16T02:17:07.464Z,31.33
2022-11-16T02:20:10.127Z,28.05
2022-11-16T02:23:02.209Z,30.33
2022-11-16T02:25:41.849Z,29.48
2022-11-16T02:28:34.681Z,25.70
2022-11-16T02:31:10.506Z,30.65
2022-11-16T02:33:44.417Z,33.10
2022-11-16T02:36:20.614Z,31.55
2022-11-16T02:38:58.133Z,37.63
2022-11-16T02:41:33.099Z,43.83
2022-11-16T02:44:11.178Z,40.38
2022-11-16T02:46:47.532Z,38.03
2022-11-16T02:49:20.609Z,37.03
2022-11-16T02:51:50.782Z,37.75
2022-11-16T02:54:22.674Z,35.92
2022-11-16T02:56:57.225Z,41.90
2022-11-16T02:59:32.235Z,42.83
2022-11-16T03:02:17.699Z,43.55
2022-11-16T03:04:51.587Z,47.42
2022-11-16T03:07:25.746Z,47.38
2022-11-16T03:09:57.102Z,42.50
2022-11-16T03:12:32.116Z,35.60
2022-11-16T03:15:06.283Z,38.58
2022-11-16T03:17:43.288Z,40.17
2022-11-16T03:20:20.842Z,38.42
2022-11-16T03:22:55.826Z,41.67
2022-11-16T03:25:33.537Z,39.20
2022-11-16T03:28:10.401Z,35.13
2022-11-16T03:30:44.308Z,38.33
2022-11-16T03:33:21.228Z,33.42
2022-11-16T03:35:58.473Z,35.45
2022-11-16T03:38:29.907Z,37.42
2022-11-16T03:41:03.225Z,37.10
2022-11-16T03:43:34.208Z,35.47
2022-11-16T03:46:03.688Z,36.47
2022-11-16T03:52:10.281Z,42.30
2022-11-16T03:54:39.588Z,39.00
2022-11-16T03:57:15.610Z,34.45
2022-11-16T03:59:45.397Z,38.05
2022-11-16T04:02:14.694Z,35.30
2022-11-16T04:05:01.184Z,33.53
2022-11-16T04:07:50.285Z,30.10
2022-11-16T04:10:37.492Z,34.38
2022-11-16T04:13:24.913Z,32.13
2022-11-16T04:16:11.829Z,32.83
2022-11-16T04:18:58.491Z,32.40
2022-11-16T04:21:48.211Z,34.25
2022-11-16T04:24:22.359Z,32.35
2022-11-16T04:27:13.443Z,27.90
2022-11-16T04:29:43.508Z,33.15
2022-11-16T04:32:31.007Z,35.33
2022-11-16T04:35:18.151Z,35.75
2022-11-16T04:37:50.289Z,28.88
2022-11-16T04:40:23.833Z,31.50
2022-11-16T04:42:54.419Z,35.30
2022-11-16T04:45:41.595Z,29.15
2022-11-16T04:48:11.278Z,30.13
2022-11-16T04:50:41.241Z,31.77
2022-11-16T04:53:11.306Z,30.30
2022-11-16T04:55:42.486Z,26.88
2022-11-16T04:58:11.890Z,34.03
2022-11-16T05:00:41.412Z,29.23
2022-11-16T05:03:10.754Z,28.42
2022-11-16T05:05:40.511Z,33.55
2022-11-16T05:08:09.903Z,31.55
2022-11-16T05:10:40.667Z,30.85
2022-11-16T05:13:10.004Z,33.42
2022-11-16T05:15:39.450Z,33.83
2022-11-16T05:18:09.006Z,33.30
2022-11-16T05:20:56.007Z,42.38
2022-11-16T05:23:42.568Z,33.63
2022-11-16T05:26:13.515Z,32.78
2022-11-16T05:28:45.724Z,36.33
2022-11-16T05:31:15.077Z,52.20
2022-11-16T05:33:44.655Z,66.95
2022-11-16T05:36:14.202Z,72.38
2022-11-16T05:38:43.722Z,48.70
2022-11-16T05:41:14.673Z,69.70
2022-11-16T05:43:44.011Z,81.18
2022-11-16T05:46:13.339Z,70.13
2022-11-16T05:48:42.749Z,81.65
2022-11-16T05:51:12.012Z,63.55
2022-11-16T05:53:41.320Z,100.90
2022-11-16T05:56:14.490Z,70.10
2022-11-16T05:58:44.813Z,93.93
2022-11-16T06:01:14.257Z,95.10
2022-11-16T06:03:43.888Z,88.20
2022-11-16T06:06:13.308Z,78.20
2022-11-16T06:08:42.727Z,85.72
2022-11-16T06:11:14.655Z,91.53
2022-11-16T06:13:44.001Z,90.13
2022-11-16T06:16:13.963Z,93.28
2022-11-16T06:18:45.715Z,86.97
2022-11-16T06:21:16.847Z,104.97
2022-11-16T06:23:46.905Z,91.45
2022-11-16T06:26:17.718Z,96.90
2022-11-16T06:28:47.327Z,88.65
2022-11-16T06:31:16.714Z,87.55
2022-11-16T06:33:46.107Z,84.43
2022-11-16T06:36:15.409Z,72.30
2022-11-16T06:38:44.896Z,60.42
2022-11-16T06:41:14.219Z,60.28
2022-11-16T06:43:44.950Z,57.08
2022-11-16T06:46:14.369Z,60.10
2022-11-16T06:52:10.120Z,64.05
2022-11-16T06:54:39.457Z,54.25
2022-11-16T06:57:08.903Z,51.20
2022-11-16T06:59:38.522Z,46.80
2022-11-16T07:02:08.055Z,37.45
2022-11-16T07:04:37.464Z,35.35
2022-11-16T07:07:08.426Z,30.13
2022-11-16T07:09:37.867Z,30.10
2022-11-16T07:12:07.958Z,26.92
2022-11-16T07:14:37.236Z,24.52
2022-11-16T07:17:09.615Z,25.67
2022-11-16T07:19:40.263Z,23.50
2022-11-16T07:22:11.080Z,21.13
2022-11-16T07:24:40.616Z,17.70
2022-11-16T07:27:10.239Z,13.85
2022-11-16T07:29:39.555Z,13.35
2022-11-16T07:32:08.879Z,13.82
2022-11-16T07:34:38.239Z,9.68
2022-11-16T07:37:07.557Z,10.05
2022-11-16T07:39:38.463Z,11.50
2022-11-16T07:42:11.982Z,8.77
2022-11-16T07:44:41.630Z,17.27
2022-11-16T07:47:11.009Z,24.90
2022-11-16T07:49:40.429Z,17.40
2022-11-16T07:52:11.795Z,15.18
2022-11-16T07:54:42.641Z,10.90
2022-11-16T07:57:12.022Z,11.05
2022-11-16T07:59:41.387Z,14.90
2022-11-16T08:02:12.069Z,10.48
2022-11-16T08:04:41.480Z,11.52
2022-11-16T08:07:11.715Z,10.52
2022-11-16T08:09:42.765Z,9.27
2022-11-16T08:12:12.168Z,10.52
2022-11-16T08:14:42.156Z,12.60
2022-11-16T08:17:11.432Z,11.98
2022-11-16T08:19:42.487Z,9.00
2022-11-16T08:22:11.853Z,9.07
2022-11-16T08:24:42.826Z,11.15
2022-11-16T08:27:13.331Z,15.40
2022-11-16T08:29:42.605Z,16.60
2022-11-16T08:32:12.005Z,17.88
2022-11-16T08:34:41.442Z,24.80
2022-11-16T08:37:10.829Z,18.85
2022-11-16T08:39:41.753Z,16.25
2022-11-16T08:42:11.284Z,19.80
2022-11-16T08:44:40.919Z,19.30
2022-11-16T08:47:10.426Z,22.25
2022-11-16T08:49:41.989Z,20.67
2022-11-16T08:52:14.633Z,21.25
2022-11-16T08:54:45.431Z,23.25
2022-11-16T08:57:14.873Z,19.10
2022-11-16T08:59:44.679Z,18.17
2022-11-16T09:02:14.296Z,21.25
2022-11-16T09:04:44.788Z,19.15
2022-11-16T09:07:14.259Z,22.10
2022-11-16T09:09:45.125Z,19.67
2022-11-16T09:12:14.582Z,18.83
2022-11-16T09:14:45.145Z,25.20
2022-11-16T09:17:18.789Z,21.58
2022-11-16T09:19:51.176Z,24.63
2022-11-16T09:22:20.624Z,23.75
2022-11-16T09:24:51.578Z,29.00
2022-11-16T09:27:21.129Z,24.02
2022-11-16T09:29:50.505Z,25.08
2022-11-16T09:32:19.923Z,21.80
2022-11-16T09:34:49.377Z,23.50
2022-11-16T09:37:18.831Z,23.95
2022-11-16T09:39:49.650Z,24.27
2022-11-16T09:42:34.514Z,21.15
2022-11-16T09:45:08.748Z,23.67
2022-11-16T09:47:50.425Z,23.10
2022-11-16T09:52:24.103Z,26.17
2022-11-16T09:54:55.555Z,23.60
2022-11-16T09:57:34.169Z,22.80
2022-11-16T10:00:13.167Z,21.95
2022-11-16T10:02:49.925Z,20.58
2022-11-16T10:05:25.940Z,20.33
2022-11-16T10:08:06.438Z,19.20
2022-11-16T10:10:41.369Z,17.73
2022-11-16T10:13:27.432Z,19.23
2022-11-16T10:16:08.194Z,19.73
2022-11-16T10:18:54.288Z,18.55
2022-11-16T10:21:41.146Z,16.27
2022-11-16T10:24:34.959Z,16.45
2022-11-16T10:27:27.838Z,16.10
2022-11-16T10:32:36.946Z,20.05
2022-11-16T10:35:17.378Z,20.88
2022-11-16T10:37:50.389Z,18.55
2022-11-16T10:40:25.947Z,18.80
2022-11-16T10:43:04.528Z,20.33
2022-11-16T10:45:44.809Z,18.42
2022-11-16T10:48:28.264Z,18.05
2022-11-16T10:50:58.016Z,18.08
2022-11-16T10:53:34.637Z,17.23
2022-11-16T10:56:18.973Z,20.30
2022-11-16T10:59:02.591Z,18.75
2022-11-16T11:01:38.627Z,18.90
2022-11-16T11:04:24.022Z,19.33
2022-11-16T11:06:55.746Z,21.35
2022-11-16T11:09:32.342Z,24.33
2022-11-16T11:12:31.267Z,21.00
2022-11-16T11:15:04.820Z,16.77
2022-11-16T11:17:36.215Z,19.23
2022-11-16T11:20:08.132Z,11.90
2022-11-16T11:22:48.013Z,14.70
2022-11-16T11:25:24.016Z,14.93
2022-11-16T11:28:07.152Z,15.50
2022-11-16T11:30:37.742Z,16.88
2022-11-16T11:33:13.796Z,16.30
2022-11-16T11:35:43.419Z,16.23
2022-11-16T11:38:17.492Z,19.20
2022-11-16T11:41:00.186Z,17.08
2022-11-16T11:43:33.695Z,17.73
2022-11-16T11:46:13.498Z,19.27
2022-11-16T11:48:53.362Z,15.32
2022-11-16T11:51:31.320Z,12.85
2022-11-16T11:54:02.594Z,19.27
2022-11-16T11:56:34.730Z,21.00
2022-11-16T11:59:07.160Z,17.38
2022-11-16T12:02:09.901Z,14.68
2022-11-16T12:05:14.272Z,14.07
2022-11-16T12:08:04.526Z,16.42
2022-11-16T12:10:46.310Z,15.93
2022-11-16T12:13:41.217Z,12.50
2022-11-16T12:16:23.413Z,13.32
2022-11-16T12:19:14.442Z,13.40
2022-11-16T12:21:56.387Z,16.70
2022-11-16T12:24:49.389Z,14.83
2022-11-16T12:30:08.619Z,14.75
2022-11-16T12:33:01.446Z,16.80
2022-11-16T12:35:48.692Z,14.95
2022-11-16T12:38:53.517Z,15.50
2022-11-16T12:41:57.205Z,18.02
2022-11-16T12:44:49.930Z,15.55
2022-11-16T12:47:30.828Z,15.55
2022-11-16T12:52:32.912Z,13.35
2022-11-16T12:55:26.736Z,14.57
2022-11-16T12:58:20.656Z,12.07
2022-11-16T13:01:06.688Z,11.88
2022-11-16T13:03:44.259Z,14.10
2022-11-16T13:06:20.708Z,12.93
2022-11-16T13:09:00.166Z,16.42
2022-11-16T13:11:36.799Z,15.77
2022-11-16T13:14:12.438Z,13.00
2022-11-16T13:16:42.760Z,12.48
2022-11-16T13:19:16.768Z,11.40
2022-11-16T13:21:55.658Z,11.70
2022-11-16T13:24:51.049Z,10.25
2022-11-16T13:27:36.244Z,13.15
2022-11-16T13:30:18.096Z,10.93
2022-11-16T13:33:16.479Z,11.38
2022-11-16T13:35:46.116Z,11.85
2022-11-16T13:38:15.999Z,10.57
2022-11-16T13:40:46.822Z,9.60
2022-11-16T13:43:22.824Z,11.98
2022-11-16T13:46:03.375Z,10.32
2022-11-16T13:48:38.438Z,10.65
2022-11-16T13:51:17.709Z,10.05
2022-11-16T13:54:43.136Z,10.88
2022-11-16T13:56:53.816Z,21.15
2022-11-16T13:59:29.250Z,18.88
2022-11-16T14:02:01.950Z,20.52
2022-11-16T14:07:43.338Z,21.38
2022-11-16T14:10:14.945Z,23.80
2022-11-16T14:12:56.184Z,20.75
2022-11-16T14:15:34.697Z,21.60
2022-11-16T14:18:35.304Z,22.80
2022-11-16T14:21:16.881Z,21.08
2022-11-16T14:24:18.952Z,20.15
2022-11-16T14:27:02.660Z,25.25
2022-11-16T14:29:49.578Z,30.45
2022-11-16T14:32:25.016Z,28.63
2022-11-16T14:34:58.235Z,24.02
2022-11-16T14:37:36.418Z,25.05
2022-11-16T14:40:15.307Z,25.15
2022-11-16T14:43:15.468Z,24.60
2022-11-16T14:45:53.768Z,20.95
2022-11-16T14:48:27.183Z,22.95
2022-11-16T14:51:09.188Z,24.67
2022-11-16T14:53:42.629Z,25.47
2022-11-16T14:56:15.339Z,25.98
2022-11-16T15:01:29.716Z,23.80
2022-11-16T15:04:04.114Z,26.95
2022-11-16T15:06:42.694Z,24.23
2022-11-16T15:09:21.590Z,26.25
2022-11-16T15:12:10.048Z,25.13
2022-11-16T15:14:46.188Z,33.55
2022-11-16T15:17:20.771Z,24.23
2022-11-16T15:19:57.675Z,23.95
2022-11-16T15:22:29.487Z,24.92
2022-11-16T15:25:00.964Z,31.70
2022-11-16T15:27:40.352Z,32.85
2022-11-16T15:30:28.941Z,31.05
2022-11-16T15:33:00.154Z,30.40
2022-11-16T15:35:33.476Z,27.95
2022-11-16T15:38:05.477Z,33.10
2022-11-16T15:40:36.420Z,31.73
2022-11-16T15:43:08.322Z,41.53
2022-11-16T15:45:39.941Z,24.07
2022-11-16T15:48:17.547Z,30.98
2022-11-16T15:52:10.879Z,26.88
2022-11-16T15:54:54.087Z,28.73
2022-11-16T15:57:25.609Z,30.30
2022-11-16T15:59:57.636Z,41.67
2022-11-16T16:02:31.061Z,26.42
2022-11-16T16:05:00.383Z,24.52
2022-11-16T16:07:42.634Z,20.73
2022-11-16T16:10:25.918Z,23.33
2022-11-16T16:12:57.481Z,28.77
2022-11-16T16:15:30.234Z,28.75
2022-11-16T16:20:32.876Z,30.10
2022-11-16T16:23:12.808Z,31.03
2022-11-16T16:25:47.448Z,27.35
2022-11-16T16:28:20.613Z,23.92
2022-11-16T16:30:53.429Z,26.45
2022-11-16T16:33:25.843Z,22.42
2022-11-16T16:35:55.338Z,20.40
2022-11-16T16:38:26.053Z,22.42
2022-11-16T16:40:56.643Z,20.25
2022-11-16T16:43:26.026Z,20.40
2022-11-16T16:45:55.509Z,19.75
2022-11-16T16:48:25.021Z,18.88
2022-11-16T16:50:54.393Z,23.15
2022-11-16T16:53:25.179Z,21.55
2022-11-16T16:55:54.877Z,21.23
2022-11-16T16:58:24.144Z,23.35
2022-11-16T17:00:58.276Z,17.83
2022-11-16T17:03:31.163Z,22.42
2022-11-16T17:06:03.062Z,25.25
2022-11-16T17:08:37.769Z,25.77
2022-11-16T17:11:07.717Z,24.00
2022-11-16T17:13:37.118Z,20.30
2022-11-16T17:16:07.931Z,30.52
2022-11-16T17:18:37.287Z,26.95
2022-11-16T17:21:08.883Z,24.45
2022-11-16T17:23:39.638Z,26.98
2022-11-16T17:26:10.613Z,22.42
2022-11-16T17:28:40.018Z,22.50
2022-11-16T17:31:12.290Z,24.88
2022-11-16T17:33:43.257Z,24.70
2022-11-16T17:36:18.016Z,26.88
2022-11-16T17:38:48.914Z,32.17
2022-11-16T17:41:21.798Z,41.10
2022-11-16T17:43:54.661Z,46.33
2022-11-16T17:48:56.230Z,48.20
2022-11-16T17:51:27.281Z,57.72
2022-11-16T17:53:58.343Z,53.75
2022-11-16T17:56:29.594Z,53.30
2022-11-16T17:58:59.759Z,41.80
2022-11-16T18:01:29.460Z,36.17
2022-11-16T18:03:58.903Z,30.50
2022-11-16T18:06:28.695Z,28.05
2022-11-16T18:08:59.864Z,26.58
2022-11-16T18:11:30.636Z,26.80
2022-11-16T18:14:01.931Z,31.67
2022-11-16T18:16:33.670Z,33.75
2022-11-16T18:19:05.771Z,27.25
2022-11-16T18:21:40.513Z,30.08
2022-11-16T18:24:12.279Z,35.63
2022-11-16T18:26:42.056Z,32.33
2022-11-16T18:29:16.210Z,27.30
2022-11-16T18:31:45.788Z,23.85
2022-11-16T18:34:19.591Z,33.45
2022-11-16T18:36:50.984Z,27.08
2022-11-16T18:39:21.891Z,23.45
2022-11-16T18:41:55.021Z,23.25
2022-11-16T18:44:25.135Z,23.85
2022-11-16T18:46:54.455Z,24.88
2022-11-16T18:52:09.995Z,20.75
2022-11-16T18:54:39.467Z,20.80
2022-11-16T18:57:08.761Z,19.38
2022-11-16T18:59:38.287Z,20.23
2022-11-16T19:02:07.943Z,20.73
2022-11-16T19:04:40.208Z,19.77
2022-11-16T19:07:11.068Z,15.45
2022-11-16T19:09:40.552Z,12.90
2022-11-16T19:12:10.039Z,19.58
2022-11-16T19:14:40.056Z,15.23
2022-11-16T19:17:10.393Z,16.00
2022-11-16T19:19:39.692Z,14.70
2022-11-16T19:22:10.480Z,12.70
2022-11-16T19:24:39.846Z,15.57
2022-11-16T19:27:09.125Z,17.10
2022-11-16T19:29:38.516Z,16.65
2022-11-16T19:32:08.094Z,19.02
2022-11-16T19:34:37.416Z,15.55
2022-11-16T19:37:06.760Z,18.83
2022-11-16T19:39:37.544Z,17.13
2022-11-16T19:42:07.395Z,22.20
2022-11-16T19:44:36.874Z,20.70
2022-11-16T19:47:06.756Z,17.83
2022-11-16T19:49:36.150Z,31.27
2022-11-16T19:52:06.097Z,22.60
2022-11-16T19:54:36.810Z,15.70
2022-11-16T19:57:06.307Z,16.77
2022-11-16T19:59:35.688Z,19.75
2022-11-16T20:02:05.287Z,21.35
2022-11-16T20:04:34.680Z,20.52
2022-11-16T20:07:05.754Z,20.48
2022-11-16T20:09:38.287Z,18.45
2022-11-16T20:12:08.094Z,24.20
2022-11-16T20:14:37.545Z,21.27
2022-11-16T20:17:06.902Z,28.13
2022-11-16T20:19:36.200Z,28.95
2022-11-16T20:22:06.675Z,28.08
2022-11-16T20:24:37.546Z,30.83
2022-11-16T20:27:07.781Z,20.13
2022-11-16T20:29:37.199Z,20.33
2022-11-16T20:32:06.891Z,19.83
2022-11-16T20:34:36.987Z,21.30
2022-11-16T20:37:07.666Z,19.02
2022-11-16T20:39:38.541Z,18.92
2022-11-16T20:42:07.845Z,16.85
2022-11-16T20:44:38.416Z,15.88
2022-11-16T20:47:07.854Z,15.07
2022-11-16T20:49:37.168Z,17.75
2022-11-16T20:52:06.954Z,22.95
2022-11-16T20:54:37.800Z,21.83
2022-11-16T20:57:07.460Z,19.90
2022-11-16T20:59:36.829Z,24.00
2022-11-16T21:02:06.148Z,25.58
2022-11-16T21:04:35.411Z,28.17
2022-11-16T21:07:04.729Z,26.40
2022-11-16T21:09:54.274Z,23.77
2022-11-16T21:12:44.578Z,21.90
2022-11-16T21:15:13.934Z,22.55
2022-11-16T21:17:43.267Z,21.38
2022-11-16T21:20:26.791Z,22.38
2022-11-16T21:22:56.626Z,19.30
2022-11-16T21:25:25.975Z,21.13
2022-11-16T21:27:57.327Z,20.70
2022-11-16T21:30:26.585Z,22.58
2022-11-16T21:32:55.916Z,41.42
2022-11-16T21:35:27.262Z,14.20
2022-11-16T21:37:56.675Z,13.07
2022-11-16T21:40:26.107Z,10.20
2022-11-16T21:42:56.980Z,14.90
2022-11-16T21:45:26.339Z,18.58
2022-11-16T21:47:55.667Z,12.40
2022-11-16T21:52:09.703Z,15.93
2022-11-16T21:54:48.562Z,15.93
2022-11-16T21:57:18.585Z,17.38
2022-11-16T21:59:47.990Z,21.92
2022-11-16T22:02:17.197Z,27.75
2022-11-16T22:05:04.258Z,22.85
2022-11-16T22:07:36.983Z,22.90
2022-11-16T22:12:39.061Z,26.90
2022-11-16T22:15:10.046Z,32.60
2022-11-16T22:17:44.473Z,21.70
2022-11-16T22:20:14.694Z,25.05
2022-11-16T22:22:45.482Z,41.75
2022-11-16T22:25:16.021Z,46.58
2022-11-16T22:28:13.790Z,38.95
2022-11-16T22:30:38.932Z,40.17
2022-11-16T22:33:08.374Z,32.22
2022-11-16T22:35:39.521Z,27.45
2022-11-16T22:38:10.303Z,36.03
2022-11-16T22:40:39.553Z,32.28
2022-11-16T22:43:08.866Z,34.65
2022-11-16T22:45:38.231Z,31.88
2022-11-16T22:48:08.146Z,34.20
2022-11-16T22:50:37.587Z,38.00
2022-11-16T22:53:08.490Z,32.08
2022-11-16T22:55:38.712Z,34.03
2022-11-16T22:58:08.816Z,26.42
2022-11-16T23:00:42.002Z,27.90
2022-11-16T23:03:11.889Z,22.63
2022-11-16T23:05:41.215Z,29.13
2022-11-16T23:08:11.948Z,19.45
2022-11-16T23:10:55.003Z,22.05
2022-11-16T23:13:41.652Z,22.13
2022-11-16T23:16:11.423Z,14.10
2022-11-16T23:18:40.623Z,21.00
2022-11-16T23:21:28.302Z,10.75
2022-11-16T23:24:16.472Z,10.68
2022-11-16T23:27:03.507Z,10.77
2022-11-16T23:29:33.008Z,14.88
2022-11-16T23:32:02.300Z,17.08
2022-11-16T23:34:31.642Z,16.73
2022-11-16T23:37:05.085Z,14.48
2022-11-16T23:39:36.272Z,11.95
2022-11-16T23:42:23.450Z,11.23
2022-11-16T23:44:53.436Z,11.82
2022-11-16T23:47:22.998Z,10.75
2022-11-16T23:49:52.460Z,10.52
2022-11-16T23:52:21.799Z,17.67
2022-11-16T23:54:52.668Z,30.23
2022-11-16T23:57:21.976Z,15.23
2022-11-16T23:59:51.410Z,12.02
